createdAt,value
2023-01-01T00:02:12.770Z,16.10
2023-01-01T00:05:11.004Z,17.50
2023-01-01T00:08:09.315Z,16.67
2023-01-01T00:11:09.439Z,19.27
2023-01-01T00:14:12.248Z,18.65
2023-01-01T00:17:11.122Z,18.23
2023-01-01T00:20:09.726Z,16.60
2023-01-01T00:23:07.720Z,16.70
2023-01-01T00:26:14.947Z,15.75
2023-01-01T00:29:13.162Z,14.82
2023-01-01T00:32:17.613Z,14.52
2023-01-01T00:35:19.024Z,15.40
2023-01-01T00:38:17.160Z,15.02
2023-01-01T00:41:17.928Z,14.57
2023-01-01T00:44:16.039Z,14.82
2023-01-01T00:47:14.086Z,14.80
2023-01-01T00:50:12.208Z,13.00
2023-01-01T00:53:10.329Z,14.50
2023-01-01T00:56:08.589Z,13.07
2023-01-01T00:59:06.995Z,14.90
2023-01-01T01:02:05.292Z,13.27
2023-01-01T01:05:05.471Z,12.07
2023-01-01T01:08:03.930Z,12.00
2023-01-01T01:11:12.640Z,10.98
2023-01-01T01:14:10.733Z,12.68
2023-01-01T01:17:08.764Z,11.13
2023-01-01T01:20:07.579Z,13.40
2023-01-01T01:23:05.833Z,11.95
2023-01-01T01:26:20.744Z,14.07
2023-01-01T01:29:18.717Z,12.65
2023-01-01T01:32:16.807Z,13.25
2023-01-01T01:35:14.913Z,12.68
2023-01-01T01:38:13.055Z,11.88
2023-01-01T01:41:26.011Z,11.90
2023-01-01T01:44:52.704Z,10.98
2023-01-01T01:47:57.443Z,10.82
2023-01-01T01:50:57.323Z,11.43
2023-01-01T01:54:01.607Z,11.32
2023-01-01T01:57:04.687Z,11.52
2023-01-01T02:00:10.331Z,13.93
2023-01-01T02:03:12.366Z,13.88
2023-01-01T02:06:11.424Z,13.68
2023-01-01T02:09:10.719Z,12.27
2023-01-01T02:12:08.773Z,13.07
2023-01-01T02:15:08.164Z,12.73
2023-01-01T02:18:16.759Z,13.45
2023-01-01T02:21:22.021Z,14.73
2023-01-01T02:24:39.429Z,13.50
2023-01-01T02:27:57.478Z,12.68
2023-01-01T02:30:57.971Z,12.77
2023-01-01T02:34:00.859Z,12.05
2023-01-01T02:37:00.533Z,13.13
2023-01-01T02:40:00.857Z,14.23
2023-01-01T02:42:59.808Z,14.98
2023-01-01T02:45:58.343Z,15.05
2023-01-01T02:48:56.436Z,19.17
2023-01-01T02:52:08.959Z,16.30
2023-01-01T02:55:26.895Z,13.52
2023-01-01T02:58:49.598Z,13.77
2023-01-01T03:05:05.806Z,14.20
2023-01-01T03:08:26.521Z,18.27
2023-01-01T03:11:32.062Z,17.65
2023-01-01T03:14:43.978Z,17.27
2023-01-01T03:17:49.816Z,15.18
2023-01-01T03:20:51.219Z,18.52
2023-01-01T03:23:55.447Z,15.50
2023-01-01T03:26:58.311Z,15.98
2023-01-01T03:30:00.720Z,15.20
2023-01-01T03:33:05.722Z,15.00
2023-01-01T03:36:11.273Z,15.00
2023-01-01T03:39:19.022Z,16.48
2023-01-01T03:42:34.717Z,16.23
2023-01-01T03:45:38.623Z,14.43
2023-01-01T03:49:02.745Z,16.70
2023-01-01T03:52:22.236Z,16.17
2023-01-01T03:55:29.818Z,17.70
2023-01-01T03:58:48.941Z,15.48
2023-01-01T04:01:52.476Z,16.77
2023-01-01T04:04:50.891Z,16.23
2023-01-01T04:10:52.260Z,16.45
2023-01-01T04:13:50.564Z,18.95
2023-01-01T04:16:48.574Z,15.30
2023-01-01T04:19:53.108Z,18.25
2023-01-01T04:22:53.070Z,17.38
2023-01-01T04:25:51.199Z,17.05
2023-01-01T04:28:52.355Z,17.77
2023-01-01T04:31:51.004Z,16.83
2023-01-01T04:34:50.053Z,17.85
2023-01-01T04:37:48.320Z,19.42
2023-01-01T04:40:46.424Z,22.00
2023-01-01T04:43:52.231Z,20.45
2023-01-01T04:46:54.180Z,18.90
2023-01-01T04:49:55.660Z,20.33
2023-01-01T04:52:54.669Z,18.10
2023-01-01T04:55:53.401Z,19.42
2023-01-01T04:58:51.855Z,20.63
2023-01-01T05:01:50.154Z,20.40
2023-01-01T05:04:48.284Z,21.38
2023-01-01T05:07:46.480Z,21.98
2023-01-01T05:10:44.519Z,21.88
2023-01-01T05:13:46.119Z,23.17
2023-01-01T05:16:44.383Z,20.80
2023-01-01T05:19:42.571Z,22.20
2023-01-01T05:22:40.574Z,21.40
2023-01-01T05:25:38.719Z,19.75
2023-01-01T05:28:36.691Z,21.52
2023-01-01T05:31:36.984Z,20.90
2023-01-01T05:37:31.733Z,24.35
2023-01-01T05:40:30.883Z,26.98
2023-01-01T05:43:29.004Z,25.88
2023-01-01T05:46:27.043Z,26.15
2023-01-01T05:49:25.205Z,30.73
2023-01-01T05:52:26.857Z,30.30
2023-01-01T05:55:25.260Z,29.58
2023-01-01T05:58:23.369Z,31.70
2023-01-01T06:01:24.425Z,34.33
2023-01-01T06:04:22.643Z,31.50
2023-01-01T06:07:21.084Z,31.75
2023-01-01T06:10:19.730Z,31.08
2023-01-01T06:13:17.866Z,29.65
2023-01-01T06:16:16.277Z,29.40
2023-01-01T06:19:15.045Z,29.58
2023-01-01T06:22:13.035Z,30.30
2023-01-01T06:25:12.054Z,29.10
2023-01-01T06:28:10.130Z,30.20
2023-01-01T06:31:10.835Z,27.60
2023-01-01T06:34:09.852Z,28.85
2023-01-01T06:37:08.104Z,29.90
2023-01-01T06:40:06.883Z,31.33
2023-01-01T06:43:04.991Z,32.08
2023-01-01T06:46:08.026Z,31.17
2023-01-01T06:49:10.811Z,32.75
2023-01-01T06:52:08.965Z,30.98
2023-01-01T06:55:07.664Z,29.98
2023-01-01T06:58:09.854Z,32.28
2023-01-01T07:01:14.098Z,31.25
2023-01-01T07:04:14.672Z,30.95
2023-01-01T07:07:12.799Z,30.52
2023-01-01T07:10:11.180Z,35.08
2023-01-01T07:13:09.324Z,30.55
2023-01-01T07:16:12.730Z,28.55
2023-01-01T07:19:12.568Z,30.33
2023-01-01T07:22:12.130Z,34.50
2023-01-01T07:25:14.331Z,29.10
2023-01-01T07:28:13.937Z,35.03
2023-01-01T07:31:12.412Z,32.58
2023-01-01T07:34:16.414Z,32.05
2023-01-01T07:37:14.517Z,32.70
2023-01-01T07:40:13.115Z,31.95
2023-01-01T07:43:13.484Z,39.83
2023-01-01T07:46:14.432Z,34.55
2023-01-01T07:49:13.260Z,32.70
2023-01-01T07:52:11.219Z,35.70
2023-01-01T07:55:13.242Z,35.17
2023-01-01T07:58:13.174Z,37.30
2023-01-01T08:01:14.035Z,33.35
2023-01-01T08:04:12.094Z,39.05
2023-01-01T08:07:10.224Z,34.95
2023-01-01T08:10:09.350Z,39.88
2023-01-01T08:13:09.654Z,33.60
2023-01-01T08:16:08.176Z,37.17
2023-01-01T08:19:06.425Z,34.65
2023-01-01T08:22:04.521Z,37.85
2023-01-01T08:25:02.793Z,35.78
2023-01-01T08:28:01.105Z,36.42
2023-01-01T08:36:11.724Z,36.33
2023-01-01T08:39:10.418Z,37.45
2023-01-01T08:42:12.347Z,37.63
2023-01-01T08:45:11.288Z,41.03
2023-01-01T08:48:09.614Z,40.20
2023-01-01T08:51:08.318Z,40.97
2023-01-01T08:54:06.905Z,41.90
2023-01-01T08:57:07.012Z,44.85
2023-01-01T09:00:13.669Z,45.55
2023-01-01T09:10:44.927Z,42.30
2023-01-01T09:13:43.316Z,45.38
2023-01-01T09:16:44.418Z,44.40
2023-01-01T09:19:51.725Z,45.47
2023-01-01T09:22:54.789Z,50.25
2023-01-01T09:25:53.239Z,47.28
2023-01-01T09:28:51.852Z,53.47
2023-01-01T09:31:50.695Z,58.60
2023-01-01T09:34:52.544Z,54.55
2023-01-01T09:37:51.243Z,53.80
2023-01-01T09:41:05.632Z,56.22
2023-01-01T09:44:18.175Z,57.53
2023-01-01T09:47:28.172Z,57.53
2023-01-01T09:50:36.639Z,58.08
2023-01-01T09:53:55.885Z,56.85
2023-01-01T09:56:59.141Z,55.65
2023-01-01T10:00:00.337Z,60.55
2023-01-01T10:03:27.548Z,62.97
2023-01-01T10:06:35.911Z,61.65
2023-01-01T10:09:56.307Z,61.67
2023-01-01T10:13:05.213Z,58.30
2023-01-01T10:16:23.864Z,61.55
2023-01-01T10:19:38.959Z,63.85
2023-01-01T10:22:42.729Z,60.28
2023-01-01T10:25:41.722Z,57.17
2023-01-01T10:28:58.226Z,58.33
2023-01-01T10:31:58.635Z,59.00
2023-01-01T10:34:58.190Z,57.97
2023-01-01T10:37:56.417Z,62.25
2023-01-01T10:41:02.836Z,61.78
2023-01-01T10:44:01.282Z,57.72
2023-01-01T10:47:05.628Z,60.08
2023-01-01T10:50:08.559Z,60.72
2023-01-01T10:53:06.784Z,59.70
2023-01-01T10:56:18.294Z,63.33
2023-01-01T10:59:36.238Z,59.10
2023-01-01T11:02:34.478Z,62.50
2023-01-01T11:05:33.052Z,60.60
2023-01-01T11:08:33.475Z,58.75
2023-01-01T11:11:39.099Z,57.13
2023-01-01T11:14:42.146Z,56.83
2023-01-01T11:17:40.437Z,56.05
2023-01-01T11:20:38.740Z,55.75
2023-01-01T11:23:39.610Z,56.97
2023-01-01T11:26:37.765Z,59.40
2023-01-01T11:29:35.989Z,53.50
2023-01-01T11:32:37.508Z,52.80
2023-01-01T11:35:51.096Z,57.88
2023-01-01T11:38:52.098Z,53.70
2023-01-01T11:41:53.021Z,56.83
2023-01-01T11:44:56.299Z,54.08
2023-01-01T11:47:58.263Z,54.83
2023-01-01T11:50:58.788Z,55.67
2023-01-01T11:54:12.625Z,56.22
2023-01-01T11:57:17.259Z,53.15
2023-01-01T12:00:18.134Z,54.78
2023-01-01T12:03:34.935Z,59.88
2023-01-01T12:06:42.198Z,57.30
2023-01-01T12:09:59.238Z,56.05
2023-01-01T12:13:07.730Z,57.33
2023-01-01T12:16:13.720Z,57.28
2023-01-01T12:19:19.917Z,54.00
2023-01-01T12:22:20.066Z,57.45
2023-01-01T12:25:21.062Z,60.45
2023-01-01T12:28:32.929Z,55.38
2023-01-01T12:31:55.777Z,59.10
2023-01-01T12:35:14.814Z,59.33
2023-01-01T12:38:48.411Z,57.70
2023-01-01T12:42:06.027Z,58.17
2023-01-01T12:45:33.298Z,57.90
2023-01-01T12:49:03.529Z,59.90
2023-01-01T12:52:11.801Z,58.70
2023-01-01T12:55:40.482Z,58.33
2023-01-01T12:58:44.980Z,56.33
2023-01-01T13:01:43.626Z,55.58
2023-01-01T13:04:44.347Z,57.38
2023-01-01T13:07:48.070Z,57.53
2023-01-01T13:10:51.560Z,55.03
2023-01-01T13:13:49.953Z,60.20
2023-01-01T13:16:55.434Z,55.60
2023-01-01T13:20:17.179Z,59.08
2023-01-01T13:23:45.568Z,54.67
2023-01-01T13:26:43.901Z,49.13
2023-01-01T13:29:46.002Z,52.78
2023-01-01T13:33:17.612Z,43.97
2023-01-01T13:36:34.640Z,43.42
2023-01-01T13:43:07.103Z,49.72
2023-01-01T13:46:14.599Z,56.80
2023-01-01T13:49:42.451Z,57.17
2023-01-01T13:53:01.650Z,57.95
2023-01-01T13:56:25.505Z,56.78
2023-01-01T13:59:54.518Z,53.80
2023-01-01T14:03:01.554Z,54.03
2023-01-01T14:06:06.267Z,43.88
2023-01-01T14:09:14.534Z,28.55
2023-01-01T14:12:20.146Z,20.10
2023-01-01T14:15:29.914Z,17.83
2023-01-01T14:18:53.348Z,41.55
2023-01-01T14:21:53.322Z,33.88
2023-01-01T14:24:51.478Z,36.25
2023-01-01T14:27:49.915Z,47.85
2023-01-01T14:30:48.625Z,51.38
2023-01-01T14:33:47.181Z,58.53
2023-01-01T14:36:54.660Z,54.67
2023-01-01T14:40:16.798Z,50.70
2023-01-01T14:43:15.082Z,53.25
2023-01-01T14:46:20.841Z,49.78
2023-01-01T14:49:24.768Z,50.15
2023-01-01T14:52:28.577Z,51.38
2023-01-01T14:55:30.209Z,49.40
2023-01-01T14:58:30.280Z,36.33
2023-01-01T15:01:28.525Z,19.67
2023-01-01T15:04:26.990Z,17.58
2023-01-01T15:07:29.583Z,31.33
2023-01-01T15:10:30.360Z,35.83
2023-01-01T15:13:29.727Z,40.20
2023-01-01T15:16:31.118Z,72.00
2023-01-01T15:19:37.285Z,60.70
2023-01-01T15:22:39.951Z,61.30
2023-01-01T15:25:39.253Z,59.70
2023-01-01T15:28:39.409Z,52.80
2023-01-01T15:31:43.060Z,58.53
2023-01-01T15:34:50.108Z,56.78
2023-01-01T15:37:52.186Z,56.88
2023-01-01T15:40:53.541Z,53.33
2023-01-01T15:43:51.898Z,53.15
2023-01-01T15:46:53.507Z,54.78
2023-01-01T15:49:51.596Z,56.28
2023-01-01T15:52:55.918Z,60.40
2023-01-01T15:55:59.137Z,56.63
2023-01-01T15:59:09.537Z,48.53
2023-01-01T16:02:22.875Z,22.23
2023-01-01T16:05:25.207Z,13.05
2023-01-01T16:08:23.753Z,10.65
2023-01-01T16:11:21.968Z,8.95
2023-01-01T16:14:20.263Z,9.35
2023-01-01T16:17:21.434Z,8.98
2023-01-01T16:20:22.904Z,8.50
2023-01-01T16:23:21.222Z,8.90
2023-01-01T16:26:19.568Z,8.68
2023-01-01T16:29:18.091Z,8.57
2023-01-01T16:32:18.835Z,7.55
2023-01-01T16:35:17.583Z,7.63
2023-01-01T16:38:16.383Z,8.80
2023-01-01T16:41:19.135Z,8.27
2023-01-01T16:44:17.791Z,8.48
2023-01-01T16:47:16.123Z,8.35
2023-01-01T16:50:14.314Z,8.98
2023-01-01T16:53:12.588Z,8.77
2023-01-01T16:56:13.413Z,8.32
2023-01-01T16:59:11.667Z,7.97
2023-01-01T17:02:11.993Z,7.38
2023-01-01T17:05:11.333Z,8.00
2023-01-01T17:08:10.525Z,7.13
2023-01-01T17:11:14.778Z,6.78
2023-01-01T17:14:13.681Z,5.90
2023-01-01T17:17:11.994Z,6.22
2023-01-01T17:20:10.526Z,6.57
2023-01-01T17:23:09.100Z,6.10
2023-01-01T17:26:09.812Z,6.05
2023-01-01T17:29:08.456Z,6.03
2023-01-01T17:32:06.790Z,5.57
2023-01-01T17:35:08.756Z,5.50
2023-01-01T17:38:06.815Z,5.10
2023-01-01T17:41:08.492Z,5.30
2023-01-01T17:44:06.831Z,6.05
2023-01-01T17:47:05.119Z,6.13
2023-01-01T17:50:03.342Z,5.32
2023-01-01T17:53:01.829Z,5.97
2023-01-01T17:55:59.986Z,5.80
2023-01-01T17:58:59.000Z,4.88
2023-01-01T18:01:57.583Z,5.30
2023-01-01T18:04:56.065Z,5.13
2023-01-01T18:07:54.125Z,5.20
2023-01-01T18:10:56.439Z,5.43
2023-01-01T18:13:54.661Z,5.45
2023-01-01T18:16:53.225Z,5.00
2023-01-01T18:19:52.443Z,5.80
2023-01-01T18:22:55.071Z,5.32
2023-01-01T18:25:53.183Z,6.72
2023-01-01T18:28:54.141Z,6.28
2023-01-01T18:31:52.233Z,7.40
2023-01-01T18:34:52.030Z,7.35
2023-01-01T18:37:50.125Z,8.35
2023-01-01T18:41:00.931Z,14.35
2023-01-01T18:44:00.921Z,22.70
2023-01-01T18:47:08.856Z,22.67
2023-01-01T18:50:17.763Z,22.33
2023-01-01T18:53:23.127Z,21.95
2023-01-01T18:56:21.184Z,14.25
2023-01-01T18:59:25.068Z,9.98
2023-01-01T19:02:39.628Z,11.57
2023-01-01T19:05:37.983Z,15.50
2023-01-01T19:08:36.220Z,14.05
2023-01-01T19:11:36.541Z,8.00
2023-01-01T19:14:34.690Z,5.70
2023-01-01T19:17:33.102Z,6.50
2023-01-01T19:20:31.126Z,4.88
2023-01-01T19:23:31.436Z,4.78
2023-01-01T19:26:35.481Z,4.55
2023-01-01T19:29:38.519Z,4.35
2023-01-01T19:32:36.626Z,4.88
2023-01-01T19:35:34.819Z,4.82
2023-01-01T19:38:33.025Z,5.13
2023-01-01T19:41:31.379Z,5.05
2023-01-01T19:44:29.432Z,5.72
2023-01-01T19:47:27.922Z,5.47
2023-01-01T19:50:25.994Z,5.20
2023-01-01T19:53:24.242Z,5.15
2023-01-01T19:56:22.911Z,4.57
2023-01-01T19:59:21.214Z,4.75
2023-01-01T20:02:44.608Z,4.05
2023-01-01T20:05:37.461Z,3.95
2023-01-01T20:08:35.661Z,3.63
2023-01-01T20:11:33.849Z,4.35
2023-01-01T20:14:32.231Z,4.03
2023-01-01T20:17:31.491Z,4.75
2023-01-01T20:20:29.651Z,4.35
2023-01-01T20:23:27.872Z,4.28
2023-01-01T20:26:26.699Z,4.40
2023-01-01T20:29:25.324Z,4.30
2023-01-01T20:32:23.687Z,4.63
2023-01-01T20:35:41.780Z,4.18
2023-01-01T20:38:40.512Z,3.55
2023-01-01T20:41:39.251Z,4.32
2023-01-01T20:44:37.596Z,4.20
2023-01-01T20:47:37.585Z,3.95
2023-01-01T20:50:35.613Z,4.05
2023-01-01T20:53:33.774Z,3.78
2023-01-01T20:56:32.356Z,3.80
2023-01-01T20:59:35.812Z,3.88
2023-01-01T21:02:35.820Z,4.65
2023-01-01T21:05:34.131Z,3.90
2023-01-01T21:08:32.481Z,3.88
2023-01-01T21:11:30.683Z,3.80
2023-01-01T21:14:29.233Z,3.80
2023-01-01T21:17:28.707Z,4.25
2023-01-01T21:20:35.291Z,4.30
2023-01-01T21:23:33.677Z,3.70
2023-01-01T21:26:36.930Z,4.22
2023-01-01T21:29:36.169Z,4.45
2023-01-01T21:32:40.689Z,3.70
2023-01-01T21:35:39.340Z,4.28
2023-01-01T21:38:37.394Z,4.03
2023-01-01T21:41:35.933Z,4.38
2023-01-01T21:44:34.195Z,4.15
2023-01-01T21:47:32.433Z,5.10
2023-01-01T21:50:30.551Z,4.47
2023-01-01T21:53:33.892Z,4.65
2023-01-01T21:56:38.332Z,3.70
2023-01-01T21:59:39.343Z,4.05
2023-01-01T22:02:39.635Z,3.97
2023-01-01T22:05:43.173Z,4.30
2023-01-01T22:08:44.610Z,4.45
2023-01-01T22:11:43.233Z,4.32
2023-01-01T22:14:45.623Z,4.38
2023-01-01T22:17:43.801Z,4.00
2023-01-01T22:20:45.150Z,3.90
2023-01-01T22:23:44.048Z,4.00
2023-01-01T22:26:42.662Z,3.83
2023-01-01T22:29:40.952Z,4.20
2023-01-01T22:32:38.976Z,4.68
2023-01-01T22:35:37.140Z,4.07
2023-01-01T22:38:35.285Z,4.23
2023-01-01T22:41:33.487Z,4.18
2023-01-01T22:44:34.356Z,3.63
2023-01-01T22:47:37.297Z,4.10
2023-01-01T22:50:35.807Z,4.25
2023-01-01T22:53:34.045Z,4.25
2023-01-01T22:56:32.253Z,3.80
2023-01-01T22:59:30.481Z,4.22
2023-01-01T23:02:28.523Z,4.65
2023-01-01T23:05:26.791Z,5.38
2023-01-01T23:08:28.512Z,4.90
2023-01-01T23:11:26.692Z,5.65
2023-01-01T23:14:45.483Z,5.25
2023-01-01T23:17:43.712Z,4.90
2023-01-01T23:20:41.807Z,5.75
2023-01-01T23:23:40.775Z,5.07
2023-01-01T23:26:40.235Z,5.82
2023-01-01T23:29:38.466Z,4.05
2023-01-01T23:32:38.058Z,3.67
2023-01-01T23:35:36.426Z,3.83
2023-01-01T23:38:35.183Z,3.70
2023-01-01T23:41:33.375Z,3.60
2023-01-01T23:44:31.432Z,3.80
2023-01-01T23:47:29.649Z,3.40
2023-01-01T23:50:27.891Z,3.53
2023-01-01T23:53:26.125Z,3.57
2023-01-01T23:56:24.192Z,3.22
2023-01-01T23:59:22.365Z,4.00
